Time;durP1;ratioP1;P1;durP2;ratioP2;P2;SDS_P1;SDS_P2;PMS_P1;PMS_P2;Temp;Humidity;BMP_temperature;BMP_pressure;BME280_temperature;BME280_humidity;BME280_pressure;Samples;Min_cycle;Max_cycle;Signal;HPM_P1;HPM_P2
2023/03/23 00:00:57;;;;;;;3.50;2.40;;;;;;;;;;5015870;28;20946;-61
2023/03/23 00:03:26;;;;;;;3.43;1.93;;;;;;;;;;5015995;28;20539;-61
2023/03/23 00:05:59;;;;;;;2.53;2.20;;;;;;;;;;5015733;28;20480;-60
2023/03/23 00:08:27;;;;;;;2.73;2.50;;;;;;;;;;5015904;28;20453;-61
2023/03/23 00:10:56;;;;;;;2.10;1.90;;;;;;;;;;5015603;28;20533;-60
2023/03/23 00:13:23;;;;;;;2.10;2.00;;;;;;;;;;5015823;28;20458;-60
2023/03/23 00:15:51;;;;;;;9.90;4.47;;;;;;;;;;5015817;28;20973;-61
2023/03/23 00:18:21;;;;;;;5.50;4.13;;;;;;;;;;5015689;28;20526;-61
2023/03/23 00:20:49;;;;;;;3.73;3.43;;;;;;;;;;5016099;28;20947;-61
2023/03/23 00:23:18;;;;;;;2.40;2.20;;;;;;;;;;5015455;28;20463;-61
2023/03/23 00:25:47;;;;;;;2.27;1.73;;;;;;;;;;5015732;28;20874;-60
2023/03/23 00:28:14;;;;;;;3.13;2.40;;;;;;;;;;5015590;28;20670;-60
2023/03/23 00:30:44;;;;;;;2.17;1.90;;;;;;;;;;5015482;28;20474;-61
2023/03/23 00:33:13;;;;;;;2.17;1.97;;;;;;;;;;5015463;28;20456;-60
2023/03/23 00:35:40;;;;;;;1.80;1.70;;;;;;;;;;5015308;28;20461;-60
2023/03/23 00:38:08;;;;;;;2.20;2.10;;;;;;;;;;5015032;28;20585;-61
2023/03/23 00:40:35;;;;;;;2.77;2.23;;;;;;;;;;5015442;28;20465;-61
2023/03/23 00:43:04;;;;;;;1.70;1.60;;;;;;;;;;5015335;28;20486;-64
2023/03/23 00:45:31;;;;;;;2.20;2.00;;;;;;;;;;5015356;28;20466;-60
2023/03/23 00:48:01;;;;;;;2.37;2.07;;;;;;;;;;5015068;28;20461;-60
2023/03/23 00:50:28;;;;;;;3.80;2.60;;;;;;;;;;5015078;28;20514;-60
2023/03/23 00:52:56;;;;;;;1.80;1.70;;;;;;;;;;5015184;28;20546;-60
2023/03/23 00:55:23;;;;;;;2.23;2.13;;;;;;;;;;5015049;28;20451;-60
2023/03/23 00:57:51;;;;;;;3.10;2.37;;;;;;;;;;5015019;28;20450;-60
2023/03/23 01:00:19;;;;;;;1.93;1.83;;;;;;;;;;5014348;28;20451;-60
2023/03/23 01:02:46;;;;;;;1.93;1.73;;;;;;;;;;5014817;28;20482;-60
2023/03/23 01:05:14;;;;;;;3.00;2.00;;;;;;;;;;5014664;28;20478;-61
2023/03/23 01:07:41;;;;;;;2.30;2.10;;;;;;;;;;5014650;28;20446;-60
2023/03/23 01:10:09;;;;;;;2.23;2.13;;;;;;;;;;5014709;28;20790;-60
2023/03/23 01:12:36;;;;;;;2.67;2.20;;;;;;;;;;5014830;28;20450;-60
2023/03/23 01:15:03;;;;;;;4.10;1.90;;;;;;;;;;5014579;28;20451;-60
2023/03/23 01:17:31;;;;;;;3.50;2.00;;;;;;;;;;5014390;28;20549;-60
2023/03/23 01:19:59;;;;;;;2.20;2.00;;;;;;;;;;5014439;28;20550;-60
2023/03/23 01:22:26;;;;;;;1.80;1.70;;;;;;;;;;5014573;28;20465;-60
2023/03/23 01:24:52;;;;;;;7.53;2.10;;;;;;;;;;5014790;28;20806;-61
2023/03/23 01:27:19;;;;;;;2.40;2.00;;;;;;;;;;5014428;28;20537;-60
2023/03/23 01:29:46;;;;;;;2.80;1.60;;;;;;;;;;5014312;28;20446;-60
2023/03/23 01:32:13;;;;;;;2.13;2.03;;;;;;;;;;5014052;28;20537;-60
2023/03/23 01:34:41;;;;;;;2.90;1.97;;;;;;;;;;5014343;28;20458;-60
2023/03/23 01:37:08;;;;;;;2.23;2.13;;;;;;;;;;5014167;28;20896;-60
2023/03/23 01:39:37;;;;;;;2.20;2.00;;;;;;;;;;5013999;28;20528;-60
2023/03/23 01:42:04;;;;;;;2.40;2.20;;;;;;;;;;5014071;28;20963;-60
2023/03/23 01:44:50;;;;;;;2.20;2.00;;;;;;;;;;5014096;28;20451;-60
2023/03/23 01:47:18;;;;;;;2.53;2.17;;;;;;;;;;5014224;28;20453;-61
2023/03/23 01:49:47;;;;;;;2.20;2.00;;;;;;;;;;5013949;28;20971;-60
2023/03/23 01:52:16;;;;;;;4.20;1.97;;;;;;;;;;5014007;28;20486;-60
2023/03/23 01:54:45;;;;;;;2.87;2.23;;;;;;;;;;5013859;28;20484;-60
2023/03/23 01:57:14;;;;;;;1.97;1.77;;;;;;;;;;5013784;28;20825;-60
2023/03/23 01:59:44;;;;;;;2.50;2.23;;;;;;;;;;5013964;28;20814;-60
2023/03/23 02:02:12;;;;;;;2.20;2.00;;;;;;;;;;5013902;28;20538;-60
2023/03/23 02:04:39;;;;;;;2.23;2.10;;;;;;;;;;5013737;28;20451;-60
2023/03/23 02:07:07;;;;;;;2.30;2.20;;;;;;;;;;5013712;28;20455;-60
2023/03/23 02:09:34;;;;;;;2.17;1.97;;;;;;;;;;5013541;28;20971;-59
2023/03/23 02:12:01;;;;;;;1.97;1.87;;;;;;;;;;5013017;28;20485;-60
2023/03/23 02:14:30;;;;;;;2.30;2.10;;;;;;;;;;5013757;28;20545;-61
2023/03/23 02:17:02;;;;;;;1.90;1.80;;;;;;;;;;5013723;28;21001;-60
2023/03/23 02:19:40;;;;;;;2.13;2.03;;;;;;;;;;5013594;28;20455;-60
2023/03/23 02:22:25;;;;;;;2.57;2.00;;;;;;;;;;5013559;28;20541;-60
2023/03/23 02:24:58;;;;;;;2.10;2.00;;;;;;;;;;5013725;28;20538;-60
2023/03/23 02:27:45;;;;;;;3.03;1.93;;;;;;;;;;5013671;28;20446;-60
2023/03/23 02:30:22;;;;;;;1.77;1.63;;;;;;;;;;5000862;28;20454;-61
2023/03/23 02:32:58;;;;;;;2.17;1.70;;;;;;;;;;5013626;28;20477;-60
2023/03/23 02:35:29;;;;;;;2.30;2.10;;;;;;;;;;5013538;28;20544;-60
2023/03/23 02:37:59;;;;;;;2.33;1.80;;;;;;;;;;5013296;28;20457;-60
2023/03/23 02:40:29;;;;;;;3.53;1.93;;;;;;;;;;5013561;28;20443;-60
2023/03/23 02:42:58;;;;;;;3.77;2.30;;;;;;;;;;5013248;28;20453;-60
2023/03/23 02:45:26;;;;;;;2.60;2.40;;;;;;;;;;5013375;28;20457;-61
2023/03/23 02:47:54;;;;;;;4.90;2.77;;;;;;;;;;5013357;28;20450;-60
2023/03/23 02:50:23;;;;;;;2.70;2.20;;;;;;;;;;5013325;28;20455;-61
2023/03/23 02:52:51;;;;;;;3.33;2.50;;;;;;;;;;5013137;28;21140;-60
2023/03/23 02:55:19;;;;;;;2.07;1.90;;;;;;;;;;5013104;28;20905;-61
2023/03/23 02:57:46;;;;;;;4.13;2.20;;;;;;;;;;5013169;28;20967;-60
2023/03/23 03:00:15;;;;;;;2.37;2.17;;;;;;;;;;5013261;28;20457;-61
2023/03/23 03:02:44;;;;;;;2.40;2.17;;;;;;;;;;5013189;28;20884;-60
2023/03/23 03:05:16;;;;;;;2.50;2.30;;;;;;;;;;5012984;28;20451;-61
2023/03/23 03:07:49;;;;;;;1.60;1.50;;;;;;;;;;5013127;28;20455;-60
2023/03/23 03:10:21;;;;;;;1.60;1.50;;;;;;;;;;5012951;28;20467;-60
2023/03/23 03:12:52;;;;;;;1.83;1.73;;;;;;;;;;5013239;28;20493;-60
2023/03/23 03:15:24;;;;;;;2.40;1.40;;;;;;;;;;5012947;28;20454;-61
2023/03/23 03:17:54;;;;;;;1.73;1.60;;;;;;;;;;5013036;28;20447;-60
2023/03/23 03:20:22;;;;;;;1.63;1.30;;;;;;;;;;5012784;28;20451;-60
2023/03/23 03:22:52;;;;;;;1.63;1.30;;;;;;;;;;5014132;28;20480;-61
2023/03/23 03:25:22;;;;;;;1.53;1.33;;;;;;;;;;5017076;28;20450;-61
2023/03/23 03:27:52;;;;;;;3.60;2.13;;;;;;;;;;5016880;28;20618;-60
2023/03/23 03:30:21;;;;;;;2.97;1.93;;;;;;;;;;5016642;28;20941;-61
2023/03/23 03:32:50;;;;;;;1.73;1.40;;;;;;;;;;5016573;28;20486;-61
2023/03/23 03:35:18;;;;;;;1.57;1.47;;;;;;;;;;5016507;28;20533;-61
2023/03/23 03:37:46;;;;;;;2.17;1.43;;;;;;;;;;5016517;28;20494;-61
2023/03/23 03:40:14;;;;;;;2.30;1.50;;;;;;;;;;5016704;28;20515;-61
2023/03/23 03:42:43;;;;;;;1.60;1.40;;;;;;;;;;5016539;28;20533;-61
2023/03/23 03:45:11;;;;;;;1.47;1.37;;;;;;;;;;5016472;28;20457;-60
2023/03/23 03:47:38;;;;;;;2.37;2.17;;;;;;;;;;5016250;28;20512;-60
2023/03/23 03:50:06;;;;;;;1.40;1.30;;;;;;;;;;5016495;28;20446;-60
2023/03/23 03:52:33;;;;;;;2.50;1.30;;;;;;;;;;5016369;28;20810;-60
2023/03/23 03:55:00;;;;;;;1.43;1.33;;;;;;;;;;5016164;28;20991;-60
2023/03/23 03:57:27;;;;;;;1.60;1.50;;;;;;;;;;5016232;28;20451;-60
2023/03/23 03:59:55;;;;;;;2.70;1.27;;;;;;;;;;5016197;28;20454;-60
2023/03/23 04:02:22;;;;;;;1.73;1.60;;;;;;;;;;5016015;28;20453;-60
2023/03/23 04:04:51;;;;;;;1.73;1.40;;;;;;;;;;5016171;28;20456;-60
2023/03/23 04:07:18;;;;;;;3.53;1.30;;;;;;;;;;5016292;28;20455;-60
2023/03/23 04:09:47;;;;;;;1.70;1.37;;;;;;;;;;5016066;28;20457;-60
2023/03/23 04:12:14;;;;;;;1.43;1.03;;;;;;;;;;5015885;28;20573;-61
2023/03/23 04:14:41;;;;;;;1.83;1.10;;;;;;;;;;5015749;28;20642;-60
2023/03/23 04:17:10;;;;;;;1.90;1.37;;;;;;;;;;5016064;28;20877;-60
2023/03/23 04:19:37;;;;;;;1.20;1.10;;;;;;;;;;5016040;28;20478;-61
2023/03/23 04:22:04;;;;;;;1.27;1.17;;;;;;;;;;5015959;28;20553;-60
2023/03/23 04:24:33;;;;;;;2.00;1.17;;;;;;;;;;5015764;28;20804;-60
2023/03/23 04:26:59;;;;;;;1.50;1.30;;;;;;;;;;5015743;28;20481;-61
2023/03/23 04:29:27;;;;;;;2.03;1.50;;;;;;;;;;5015560;28;20941;-60
2023/03/23 04:31:55;;;;;;;2.03;1.93;;;;;;;;;;5015431;28;20517;-60
2023/03/23 04:34:24;;;;;;;1.67;1.57;;;;;;;;;;5014674;28;20455;-60
2023/03/23 04:36:51;;;;;;;1.73;1.40;;;;;;;;;;5015546;28;20453;-61
2023/03/23 04:39:18;;;;;;;1.50;1.37;;;;;;;;;;5015334;28;20478;-60
2023/03/23 04:41:45;;;;;;;1.30;1.13;;;;;;;;;;5015414;28;20460;-60
2023/03/23 04:44:17;;;;;;;1.40;1.30;;;;;;;;;;5015259;28;20508;-60
2023/03/23 04:46:45;;;;;;;1.87;1.40;;;;;;;;;;5015344;28;20479;-60
2023/03/23 04:49:14;;;;;;;1.47;1.20;;;;;;;;;;5015302;28;20457;-60
2023/03/23 04:51:42;;;;;;;1.73;1.33;;;;;;;;;;5015161;28;20478;-60
2023/03/23 04:54:11;;;;;;;2.40;1.67;;;;;;;;;;5015163;28;20457;-60
2023/03/23 04:56:38;;;;;;;7.50;2.00;;;;;;;;;;5015280;28;20513;-61
2023/03/23 04:59:06;;;;;;;2.10;1.47;;;;;;;;;;5015251;28;20846;-60
2023/03/23 05:01:33;;;;;;;1.40;1.30;;;;;;;;;;5015070;28;20452;-60
2023/03/23 05:04:02;;;;;;;2.50;1.40;;;;;;;;;;5015005;28;20500;-60
2023/03/23 05:06:28;;;;;;;1.43;1.33;;;;;;;;;;5014902;28;20461;-60
2023/03/23 05:08:57;;;;;;;1.33;1.23;;;;;;;;;;5014754;28;20562;-60
2023/03/23 05:11:24;;;;;;;2.43;1.70;;;;;;;;;;5014861;28;20454;-61
2023/03/23 05:13:51;;;;;;;2.47;1.30;;;;;;;;;;5014745;28;20451;-60
2023/03/23 05:16:17;;;;;;;2.90;1.20;;;;;;;;;;5014657;28;20467;-60
2023/03/23 05:18:46;;;;;;;1.63;1.50;;;;;;;;;;5014576;28;21103;-60
2023/03/23 05:21:13;;;;;;;1.97;1.77;;;;;;;;;;5014425;28;20814;-60
2023/03/23 05:23:40;;;;;;;1.77;1.47;;;;;;;;;;5014590;28;20456;-60
2023/03/23 05:26:08;;;;;;;1.40;1.30;;;;;;;;;;5014594;28;20456;-60
2023/03/23 05:28:36;;;;;;;3.13;1.80;;;;;;;;;;5014421;28;20454;-60
2023/03/23 05:31:03;;;;;;;1.60;1.50;;;;;;;;;;5014326;28;20534;-60
2023/03/23 05:33:30;;;;;;;1.43;1.33;;;;;;;;;;5014057;28;21066;-60
2023/03/23 05:35:56;;;;;;;1.93;1.40;;;;;;;;;;5014260;28;20450;-60
2023/03/23 05:38:24;;;;;;;1.47;1.17;;;;;;;;;;5014262;28;20475;-60
2023/03/23 05:40:52;;;;;;;2.03;1.40;;;;;;;;;;5014212;28;20960;-60
2023/03/23 05:43:20;;;;;;;2.80;1.50;;;;;;;;;;5014304;28;20454;-60
2023/03/23 05:45:48;;;;;;;1.27;1.17;;;;;;;;;;5013947;28;20455;-60
2023/03/23 05:48:14;;;;;;;1.63;1.53;;;;;;;;;;5014055;28;20556;-60
2023/03/23 05:50:41;;;;;;;2.27;1.60;;;;;;;;;;5013979;28;20456;-61
2023/03/23 05:53:09;;;;;;;1.80;1.50;;;;;;;;;;5014072;28;20985;-61
2023/03/23 05:55:36;;;;;;;2.13;1.67;;;;;;;;;;5014130;28;20538;-61
2023/03/23 05:58:03;;;;;;;2.73;1.40;;;;;;;;;;5013877;28;20451;-61
2023/03/23 06:00:32;;;;;;;2.17;1.27;;;;;;;;;;5013870;28;20457;-61
2023/03/23 06:03:00;;;;;;;1.67;1.57;;;;;;;;;;5013682;28;20972;-60
2023/03/23 06:05:28;;;;;;;2.27;1.40;;;;;;;;;;5013899;28;20554;-60
2023/03/23 06:07:55;;;;;;;2.40;1.43;;;;;;;;;;5013955;28;20452;-61
2023/03/23 06:10:23;;;;;;;1.70;1.60;;;;;;;;;;5013799;28;20537;-60
2023/03/23 06:12:51;;;;;;;1.60;1.50;;;;;;;;;;5013710;28;20485;-60
2023/03/23 06:15:18;;;;;;;1.37;1.27;;;;;;;;;;5013523;28;20975;-60
2023/03/23 06:17:47;;;;;;;2.40;1.80;;;;;;;;;;5013417;28;20457;-60
2023/03/23 06:20:15;;;;;;;3.77;2.20;;;;;;;;;;5013649;28;20458;-61
2023/03/23 06:22:42;;;;;;;2.57;2.03;;;;;;;;;;5013563;28;20549;-60
2023/03/23 06:25:11;;;;;;;1.67;1.57;;;;;;;;;;5013528;28;20535;-61
2023/03/23 06:27:38;;;;;;;2.40;2.10;;;;;;;;;;5013460;28;20449;-60
2023/03/23 06:30:05;;;;;;;1.60;1.50;;;;;;;;;;5013390;28;20495;-61
2023/03/23 06:32:33;;;;;;;2.43;1.80;;;;;;;;;;5013412;28;20828;-61
2023/03/23 06:35:03;;;;;;;3.70;1.80;;;;;;;;;;5013474;28;20829;-61
2023/03/23 06:37:30;;;;;;;3.50;1.57;;;;;;;;;;5013331;28;20550;-60
2023/03/23 06:39:58;;;;;;;3.10;2.20;;;;;;;;;;5013077;28;20487;-60
2023/03/23 06:42:25;;;;;;;4.33;1.90;;;;;;;;;;5013232;28;20459;-61
2023/03/23 06:44:52;;;;;;;2.57;2.37;;;;;;;;;;5013043;28;20494;-61
2023/03/23 06:47:19;;;;;;;2.10;1.97;;;;;;;;;;5013315;28;20450;-61
2023/03/23 06:49:46;;;;;;;2.87;2.50;;;;;;;;;;5013237;28;20889;-61
2023/03/23 06:52:14;;;;;;;2.53;2.33;;;;;;;;;;5013067;28;20573;-63
2023/03/23 06:54:41;;;;;;;2.63;2.43;;;;;;;;;;5012869;28;21016;-60
2023/03/23 06:57:08;;;;;;;3.80;3.50;;;;;;;;;;5012546;28;20454;-60
2023/03/23 06:59:35;;;;;;;4.93;3.90;;;;;;;;;;5012858;28;20458;-61
2023/03/23 07:02:02;;;;;;;7.40;5.20;;;;;;;;;;5013121;28;20457;-60
2023/03/23 07:04:30;;;;;;;6.87;5.30;;;;;;;;;;5013051;28;20450;-60
2023/03/23 07:06:57;;;;;;;5.80;4.90;;;;;;;;;;5012887;28;20541;-60
2023/03/23 07:09:25;;;;;;;6.00;5.13;;;;;;;;;;5012958;28;20459;-60
2023/03/23 07:11:52;;;;;;;4.43;4.00;;;;;;;;;;5012803;28;20610;-60
2023/03/23 07:14:21;;;;;;;5.57;3.50;;;;;;;;;;5012968;28;20577;-60
2023/03/23 07:16:48;;;;;;;3.87;2.87;;;;;;;;;;5012947;28;20455;-61
2023/03/23 07:19:15;;;;;;;5.73;3.27;;;;;;;;;;5012915;28;20454;-61
2023/03/23 07:21:42;;;;;;;4.70;4.20;;;;;;;;;;5012826;28;20485;-60
2023/03/23 07:24:12;;;;;;;2.90;2.67;;;;;;;;;;5012684;28;20817;-60
2023/03/23 07:26:40;;;;;;;4.17;2.20;;;;;;;;;;5012974;28;20477;-61
2023/03/23 07:29:07;;;;;;;3.43;2.20;;;;;;;;;;5012886;28;20449;-60
2023/03/23 07:31:34;;;;;;;1.77;1.67;;;;;;;;;;5012681;28;20976;-60
2023/03/23 07:34:02;;;;;;;3.00;1.57;;;;;;;;;;5012623;28;20851;-60
2023/03/23 07:36:29;;;;;;;2.80;2.23;;;;;;;;;;5012671;28;20524;-60
2023/03/23 07:38:56;;;;;;;2.00;1.90;;;;;;;;;;5012545;28;20821;-61
2023/03/23 07:41:23;;;;;;;3.27;1.87;;;;;;;;;;5012881;28;20512;-60
2023/03/23 07:43:52;;;;;;;2.17;2.03;;;;;;;;;;5012676;28;20450;-61
2023/03/23 07:46:18;;;;;;;2.13;2.03;;;;;;;;;;5012656;28;20458;-61
2023/03/23 07:48:46;;;;;;;5.17;1.90;;;;;;;;;;5012633;28;20982;-60
2023/03/23 07:51:13;;;;;;;2.10;1.90;;;;;;;;;;5012466;28;20482;-61
2023/03/23 07:53:40;;;;;;;4.13;2.77;;;;;;;;;;5012356;28;20518;-61
2023/03/23 07:56:07;;;;;;;3.87;2.30;;;;;;;;;;5012732;28;20482;-61
2023/03/23 07:58:34;;;;;;;3.40;1.90;;;;;;;;;;5012483;28;20949;-61
2023/03/23 08:01:03;;;;;;;3.13;2.27;;;;;;;;;;5012451;28;20451;-61
2023/03/23 08:03:31;;;;;;;2.03;1.93;;;;;;;;;;5012419;28;21036;-61
2023/03/23 08:05:59;;;;;;;2.47;1.97;;;;;;;;;;5012377;28;20502;-60
2023/03/23 08:08:25;;;;;;;2.10;2.00;;;;;;;;;;5012532;28;20953;-60
2023/03/23 08:10:53;;;;;;;4.00;2.40;;;;;;;;;;5015045;28;20447;-61
2023/03/23 08:13:19;;;;;;;4.20;1.97;;;;;;;;;;5015817;28;20848;-61
2023/03/23 08:15:46;;;;;;;1.80;1.70;;;;;;;;;;5015827;28;20882;-61
2023/03/23 08:18:15;;;;;;;2.67;2.43;;;;;;;;;;5015783;28;20801;-62
2023/03/23 08:20:42;;;;;;;2.40;2.20;;;;;;;;;;5015636;28;20443;-61
2023/03/23 08:23:09;;;;;;;2.23;1.77;;;;;;;;;;5015775;28;20794;-60
2023/03/23 08:25:36;;;;;;;2.83;1.90;;;;;;;;;;5015813;28;21024;-68
2023/03/23 08:28:03;;;;;;;2.07;1.80;;;;;;;;;;5015688;28;20534;-62
2023/03/23 08:30:32;;;;;;;2.50;2.30;;;;;;;;;;5015451;28;20541;-63
2023/03/23 08:33:00;;;;;;;3.20;2.33;;;;;;;;;;5015335;28;20471;-61
2023/03/23 08:35:29;;;;;;;3.77;2.33;;;;;;;;;;5015529;28;20486;-62
2023/03/23 08:37:57;;;;;;;2.20;1.53;;;;;;;;;;5015153;28;20487;-64
2023/03/23 08:40:24;;;;;;;2.23;1.90;;;;;;;;;;5015361;28;20451;-60
2023/03/23 08:42:54;;;;;;;2.00;1.50;;;;;;;;;;5015246;28;20965;-60
2023/03/23 08:45:22;;;;;;;2.07;1.80;;;;;;;;;;5015150;28;20447;-60
2023/03/23 08:47:51;;;;;;;2.10;1.93;;;;;;;;;;5015201;28;20448;-60
2023/03/23 08:50:19;;;;;;;3.10;1.90;;;;;;;;;;5015307;28;20481;-58
2023/03/23 08:52:49;;;;;;;2.30;1.73;;;;;;;;;;5015036;28;20454;-60
2023/03/23 08:55:16;;;;;;;2.20;2.00;;;;;;;;;;5015056;28;20460;-60
2023/03/23 08:57:43;;;;;;;3.20;1.87;;;;;;;;;;5014980;28;20934;-60
2023/03/23 09:00:17;;;;;;;3.70;2.03;;;;;;;;;;5014912;28;20504;-60
2023/03/23 09:02:44;;;;;;;2.57;1.57;;;;;;;;;;5015126;28;20455;-60
2023/03/23 09:05:12;;;;;;;3.43;1.97;;;;;;;;;;5014906;28;20541;-62
2023/03/23 09:07:39;;;;;;;1.83;1.60;;;;;;;;;;5014766;28;20566;-61
2023/03/23 09:10:09;;;;;;;2.53;2.10;;;;;;;;;;5014911;28;20788;-61
2023/03/23 09:12:36;;;;;;;1.97;1.77;;;;;;;;;;5014619;28;20867;-62
2023/03/23 09:15:08;;;;;;;2.20;1.90;;;;;;;;;;5014652;28;20837;-62
2023/03/23 09:17:34;;;;;;;3.30;2.00;;;;;;;;;;5014804;28;20454;-62
2023/03/23 09:20:03;;;;;;;2.03;1.87;;;;;;;;;;5014197;28;20458;-61
2023/03/23 09:22:31;;;;;;;2.70;1.73;;;;;;;;;;5014432;28;20570;-59
2023/03/23 09:25:00;;;;;;;1.70;1.60;;;;;;;;;;5014321;28;20450;-61
2023/03/23 09:27:29;;;;;;;2.43;1.77;;;;;;;;;;5014621;28;20446;-60
2023/03/23 09:29:56;;;;;;;1.70;1.53;;;;;;;;;;5014659;28;20784;-59
2023/03/23 09:32:23;;;;;;;3.53;2.10;;;;;;;;;;5014405;28;20454;-60
2023/03/23 09:34:51;;;;;;;1.60;1.50;;;;;;;;;;5014311;28;20541;-60
2023/03/23 09:37:18;;;;;;;2.00;1.80;;;;;;;;;;5014238;28;20509;-61
2023/03/23 09:39:45;;;;;;;2.40;1.63;;;;;;;;;;5013730;28;20571;-60
2023/03/23 09:42:18;;;;;;;2.33;1.10;;;;;;;;;;5014341;28;20861;-62
2023/03/23 09:44:55;;;;;;;1.77;1.67;;;;;;;;;;5014220;28;20446;-62
2023/03/23 09:47:28;;;;;;;1.70;1.50;;;;;;;;;;5014124;28;20456;-63
2023/03/23 09:49:57;;;;;;;3.33;1.47;;;;;;;;;;5014094;28;20517;-61
2023/03/23 09:52:28;;;;;;;2.60;1.80;;;;;;;;;;5013896;28;20455;-64
2023/03/23 09:54:55;;;;;;;4.20;1.70;;;;;;;;;;5013979;28;20491;-64
2023/03/23 09:57:27;;;;;;;2.10;1.50;;;;;;;;;;5014263;28;20533;-64
2023/03/23 09:59:58;;;;;;;1.90;1.80;;;;;;;;;;5013772;28;20462;-62
2023/03/23 10:02:28;;;;;;;1.93;1.50;;;;;;;;;;5013800;28;20543;-61
2023/03/23 10:04:57;;;;;;;1.70;1.40;;;;;;;;;;5013617;28;20547;-59
2023/03/23 10:07:25;;;;;;;1.37;1.27;;;;;;;;;;5013912;28;20814;-61
2023/03/23 10:09:53;;;;;;;1.43;1.30;;;;;;;;;;5013711;28;20453;-61
2023/03/23 10:12:25;;;;;;;1.60;1.33;;;;;;;;;;5013726;28;20452;-61
2023/03/23 10:14:59;;;;;;;1.40;1.30;;;;;;;;;;5013389;28;20577;-62
2023/03/23 10:17:29;;;;;;;1.60;1.50;;;;;;;;;;5013824;28;20440;-59
2023/03/23 10:19:59;;;;;;;1.40;1.20;;;;;;;;;;5013707;28;20811;-59
2023/03/23 10:22:30;;;;;;;1.53;1.43;;;;;;;;;;5013546;28;20451;-59
2023/03/23 10:25:02;;;;;;;1.40;1.30;;;;;;;;;;5013575;28;20462;-61
2023/03/23 10:27:33;;;;;;;1.63;1.20;;;;;;;;;;5013004;28;20449;-62
2023/03/23 10:30:04;;;;;;;1.60;1.50;;;;;;;;;;5013504;28;20446;-62
2023/03/23 10:32:41;;;;;;;1.20;1.10;;;;;;;;;;5012669;28;20539;-59
2023/03/23 10:35:11;;;;;;;1.70;1.60;;;;;;;;;;5013291;28;20849;-62
2023/03/23 10:37:40;;;;;;;1.40;1.30;;;;;;;;;;5013412;28;20452;-62
2023/03/23 10:40:15;;;;;;;2.87;1.50;;;;;;;;;;5012886;28;20471;-62
2023/03/23 10:42:42;;;;;;;5.40;1.30;;;;;;;;;;5013388;28;20474;-60
2023/03/23 10:45:15;;;;;;;1.97;1.87;;;;;;;;;;5013032;28;20499;-64
2023/03/23 10:47:44;;;;;;;1.50;1.20;;;;;;;;;;5012295;28;20459;-60
2023/03/23 10:50:15;;;;;;;1.60;1.20;;;;;;;;;;5003077;28;20458;-60
2023/03/23 10:52:44;;;;;;;1.87;1.30;;;;;;;;;;5009653;28;20461;-61
2023/03/23 10:55:12;;;;;;;10.53;9.47;;;;;;;;;;5012924;28;20486;-61
2023/03/23 10:57:40;;;;;;;6.10;2.97;;;;;;;;;;5012947;28;20456;-62
2023/03/23 11:00:08;;;;;;;5.73;1.67;;;;;;;;;;5012954;28;20989;-62
2023/03/23 11:02:43;;;;;;;1.73;1.40;;;;;;;;;;5012934;28;20487;-62
2023/03/23 11:05:17;;;;;;;1.30;1.20;;;;;;;;;;5012892;28;20459;-62
2023/03/23 11:07:49;;;;;;;1.27;1.17;;;;;;;;;;5013107;28;20472;-61
2023/03/23 11:10:19;;;;;;;1.27;1.17;;;;;;;;;;5013078;28;20492;-60
2023/03/23 11:12:47;;;;;;;1.47;1.37;;;;;;;;;;5012928;28;20538;-61
2023/03/23 11:15:24;;;;;;;1.40;1.23;;;;;;;;;;5012665;28;20571;-61
2023/03/23 11:17:59;;;;;;;1.47;1.20;;;;;;;;;;5012858;28;21051;-59
2023/03/23 11:20:28;;;;;;;1.80;1.30;;;;;;;;;;5013017;28;20978;-61
2023/03/23 11:22:55;;;;;;;1.53;1.37;;;;;;;;;;5012726;28;20821;-59
2023/03/23 11:25:22;;;;;;;2.53;1.53;;;;;;;;;;5012694;28;20460;-62
2023/03/23 11:27:50;;;;;;;2.70;1.50;;;;;;;;;;5012786;28;20454;-62
2023/03/23 11:30:22;;;;;;;4.10;1.40;;;;;;;;;;5013147;28;20489;-63
2023/03/23 11:32:49;;;;;;;1.43;1.33;;;;;;;;;;5012919;28;20450;-64
2023/03/23 11:35:20;;;;;;;1.87;1.60;;;;;;;;;;5012463;28;20479;-61
2023/03/23 11:37:49;;;;;;;3.33;1.80;;;;;;;;;;5012674;28;20546;-62
2023/03/23 11:40:18;;;;;;;1.50;1.40;;;;;;;;;;5012589;28;20458;-61
2023/03/23 11:42:45;;;;;;;2.10;1.90;;;;;;;;;;5012390;28;20784;-62
2023/03/23 11:45:18;;;;;;;1.60;1.50;;;;;;;;;;5015823;28;20924;-59
2023/03/23 11:47:47;;;;;;;2.60;1.53;;;;;;;;;;5016300;28;20546;-59
2023/03/23 11:50:18;;;;;;;1.30;1.20;;;;;;;;;;5016179;28;20507;-60
2023/03/23 11:52:48;;;;;;;1.30;1.20;;;;;;;;;;5015987;28;20515;-60
2023/03/23 11:55:17;;;;;;;1.30;1.20;;;;;;;;;;5015948;28;20560;-59
2023/03/23 11:57:44;;;;;;;1.80;1.30;;;;;;;;;;5016187;28;20816;-62
2023/03/23 12:00:19;;;;;;;2.43;1.40;;;;;;;;;;5016181;28;20460;-61
2023/03/23 12:03:04;;;;;;;1.60;1.50;;;;;;;;;;5016075;28;20451;-60
2023/03/23 12:05:37;;;;;;;1.20;1.10;;;;;;;;;;5016017;28;20454;-61
2023/03/23 12:08:12;;;;;;;2.73;1.47;;;;;;;;;;5016082;28;20539;-59
2023/03/23 12:10:43;;;;;;;2.20;1.47;;;;;;;;;;5016123;28;20812;-61
2023/03/23 12:13:21;;;;;;;1.50;1.30;;;;;;;;;;5015659;28;20456;-60
2023/03/23 12:15:52;;;;;;;2.23;1.60;;;;;;;;;;5015672;28;20907;-60
2023/03/23 12:18:21;;;;;;;3.07;1.50;;;;;;;;;;5015945;28;20491;-63
2023/03/23 12:20:55;;;;;;;4.73;2.10;;;;;;;;;;5015856;28;20855;-67
2023/03/23 12:23:25;;;;;;;3.70;1.50;;;;;;;;;;5015729;28;20452;-62
2023/03/23 12:26:00;;;;;;;1.70;1.20;;;;;;;;;;5016044;28;20462;-61
2023/03/23 12:28:34;;;;;;;1.40;1.30;;;;;;;;;;5015386;28;20463;-60
2023/03/23 12:31:04;;;;;;;1.40;1.20;;;;;;;;;;5015541;28;20990;-60
2023/03/23 12:33:45;;;;;;;1.50;1.33;;;;;;;;;;5015843;28;20460;-63
2023/03/23 12:36:16;;;;;;;2.93;1.90;;;;;;;;;;5015452;28;20572;-63
2023/03/23 12:39:00;;;;;;;1.30;1.20;;;;;;;;;;5015099;28;20482;-61
2023/03/23 12:41:29;;;;;;;2.50;1.80;;;;;;;;;;5015645;28;20468;-60
2023/03/23 12:44:00;;;;;;;1.90;1.60;;;;;;;;;;5015263;28;20460;-62
2023/03/23 12:46:34;;;;;;;1.90;1.60;;;;;;;;;;5015225;28;20456;-61
2023/03/23 12:49:03;;;;;;;1.87;1.43;;;;;;;;;;5015208;28;20448;-62
2023/03/23 12:51:32;;;;;;;2.67;1.47;;;;;;;;;;5015120;28;20450;-61
2023/03/23 12:54:13;;;;;;;2.40;1.93;;;;;;;;;;5015025;28;20544;-61
2023/03/23 12:56:43;;;;;;;3.20;1.40;;;;;;;;;;5014649;28;20456;-65
2023/03/23 12:59:13;;;;;;;1.73;1.20;;;;;;;;;;5015072;28;20448;-62
2023/03/23 13:01:44;;;;;;;5.83;1.93;;;;;;;;;;5014954;28;20877;-62
2023/03/23 13:04:13;;;;;;;1.63;1.47;;;;;;;;;;5014884;28;20452;-62
2023/03/23 13:06:41;;;;;;;4.23;1.40;;;;;;;;;;5014992;28;20454;-60
2023/03/23 13:09:16;;;;;;;1.73;1.57;;;;;;;;;;5014792;28;20557;-61
2023/03/23 13:11:45;;;;;;;1.37;1.20;;;;;;;;;;5014987;28;20502;-60
2023/03/23 13:14:18;;;;;;;1.30;1.20;;;;;;;;;;5014536;28;20484;-61
2023/03/23 13:16:49;;;;;;;2.30;1.67;;;;;;;;;;5014869;28;20548;-63
2023/03/23 13:19:20;;;;;;;1.80;1.70;;;;;;;;;;5014794;28;20488;-63
2023/03/23 13:21:51;;;;;;;3.10;1.70;;;;;;;;;;5014780;28;20463;-62
2023/03/23 13:24:22;;;;;;;4.30;1.47;;;;;;;;;;5014570;28;20803;-61
2023/03/23 13:26:51;;;;;;;2.30;1.73;;;;;;;;;;5014385;28;20479;-60
2023/03/23 13:29:20;;;;;;;2.93;1.87;;;;;;;;;;5014489;28;20456;-61
2023/03/23 13:31:49;;;;;;;1.60;1.50;;;;;;;;;;5014481;28;20449;-60
2023/03/23 13:34:18;;;;;;;1.93;1.83;;;;;;;;;;5014303;28;20457;-62
2023/03/23 13:36:46;;;;;;;1.90;1.80;;;;;;;;;;5014394;28;20485;-63
2023/03/23 13:39:20;;;;;;;1.83;1.33;;;;;;;;;;5013953;28;20570;-61
2023/03/23 13:41:49;;;;;;;1.43;1.33;;;;;;;;;;5014390;28;20453;-59
2023/03/23 13:44:21;;;;;;;2.80;2.10;;;;;;;;;;5014162;28;20536;-60
2023/03/23 13:46:59;;;;;;;1.80;1.70;;;;;;;;;;5014088;28;20457;-63
2023/03/23 13:49:27;;;;;;;3.13;1.63;;;;;;;;;;5013892;28;20446;-62
2023/03/23 13:52:00;;;;;;;2.03;1.87;;;;;;;;;;5013343;28;20448;-62
2023/03/23 13:54:32;;;;;;;1.83;1.20;;;;;;;;;;5013759;28;20483;-62
2023/03/23 13:57:01;;;;;;;3.43;1.40;;;;;;;;;;5013971;28;20855;-62
2023/03/23 13:59:33;;;;;;;2.27;1.47;;;;;;;;;;5013964;28;20940;-62
2023/03/23 14:02:15;;;;;;;2.00;1.63;;;;;;;;;;5013835;28;20871;-62
2023/03/23 14:04:42;;;;;;;4.77;1.37;;;;;;;;;;5013007;28;20951;-62
2023/03/23 14:07:11;;;;;;;2.70;2.00;;;;;;;;;;5013777;28;20823;-63
2023/03/23 14:09:41;;;;;;;1.37;1.20;;;;;;;;;;5013914;28;20547;-65
2023/03/23 14:12:17;;;;;;;1.80;1.70;;;;;;;;;;5013621;28;20492;-62
2023/03/23 14:14:46;;;;;;;2.87;1.30;;;;;;;;;;5013380;28;21116;-62
2023/03/23 14:17:14;;;;;;;2.27;1.50;;;;;;;;;;5013720;28;20458;-62
2023/03/23 14:19:43;;;;;;;1.40;1.30;;;;;;;;;;5013742;28;20760;-62
2023/03/23 14:22:18;;;;;;;1.50;1.10;;;;;;;;;;5013670;28;20580;-62
2023/03/23 14:24:45;;;;;;;1.20;1.10;;;;;;;;;;5013622;28;20460;-62
2023/03/23 14:27:14;;;;;;;1.87;1.20;;;;;;;;;;5013835;28;20480;-62
2023/03/23 14:29:43;;;;;;;1.93;1.30;;;;;;;;;;5013630;28;20484;-62
2023/03/23 14:32:12;;;;;;;2.10;1.37;;;;;;;;;;5013474;28;20460;-62
2023/03/23 14:34:39;;;;;;;3.30;1.80;;;;;;;;;;5013351;28;20463;-62
2023/03/23 14:37:11;;;;;;;3.17;1.60;;;;;;;;;;5013409;28;20440;-62
2023/03/23 14:39:38;;;;;;;1.83;1.40;;;;;;;;;;5013084;28;20978;-62
2023/03/23 14:42:06;;;;;;;1.30;1.20;;;;;;;;;;5013464;28;20480;-62
2023/03/23 14:44:34;;;;;;;4.07;1.67;;;;;;;;;;5013407;28;20489;-62
2023/03/23 14:47:05;;;;;;;2.57;1.30;;;;;;;;;;5013214;28;20453;-62
2023/03/23 14:49:33;;;;;;;1.43;1.20;;;;;;;;;;5013242;28;20463;-62
2023/03/23 14:52:04;;;;;;;2.73;2.27;;;;;;;;;;5013147;28;20499;-62
2023/03/23 14:54:33;;;;;;;1.70;1.30;;;;;;;;;;5012924;28;20446;-61